createdAt,value
2017-08-16T00:00:29.213Z,1011.08
2017-08-16T00:01:29.543Z,1011.11
2017-08-16T00:02:29.266Z,1011.16
2017-08-16T00:03:29.295Z,1011.17
2017-08-16T00:04:29.317Z,1011.15
2017-08-16T00:05:29.346Z,1011.17
2017-08-16T00:06:29.373Z,1011.14
2017-08-16T00:07:29.396Z,1011.1
2017-08-16T00:08:29.419Z,1011.1
2017-08-16T00:09:29.446Z,1011.09
2017-08-16T00:10:29.475Z,1011.08
2017-08-16T00:11:29.500Z,1011.08
2017-08-16T00:12:29.528Z,1011.09
2017-08-16T00:13:29.548Z,1011.09
2017-08-16T00:14:29.578Z,1011.11
2017-08-16T00:15:29.602Z,1011.11
2017-08-16T00:16:29.625Z,1011.12
2017-08-16T00:17:29.655Z,1011.1
2017-08-16T00:18:29.680Z,1011.13
2017-08-16T00:19:29.708Z,1011.11
2017-08-16T00:20:29.728Z,1011.1
2017-08-16T00:21:29.757Z,1011.13
2017-08-16T00:22:29.782Z,1011.1
2017-08-16T00:23:29.808Z,1011.1
2017-08-16T00:24:29.836Z,1011.12
2017-08-16T00:25:29.861Z,1011.12
2017-08-16T00:26:29.888Z,1011.1
2017-08-16T00:27:29.915Z,1011.1
2017-08-16T00:28:29.937Z,1011.09
2017-08-16T00:29:29.962Z,1011.06
2017-08-16T00:31:30.013Z,1011.06
2017-08-16T00:32:30.041Z,1011.05
2017-08-16T00:33:30.066Z,1011.06
2017-08-16T00:34:30.093Z,1011.06
2017-08-16T00:35:30.116Z,1011.09
2017-08-16T00:36:30.145Z,1011.06
2017-08-16T00:37:30.169Z,1011.1
2017-08-16T00:38:30.196Z,1011.12
2017-08-16T00:39:30.216Z,1011.13
2017-08-16T00:40:30.246Z,1011.13
2017-08-16T00:41:30.269Z,1011.17
2017-08-16T00:42:30.299Z,1011.19
2017-08-16T00:43:30.322Z,1011.18
2017-08-16T00:44:30.347Z,1011.2
2017-08-16T00:45:30.373Z,1011.18
2017-08-16T00:47:30.424Z,1011.24
2017-08-16T00:48:30.456Z,1011.24
2017-08-16T00:49:30.479Z,1011.25
2017-08-16T00:50:30.504Z,1011.25
2017-08-16T00:51:30.529Z,1011.28
2017-08-16T00:52:30.548Z,1011.25
2017-08-16T00:53:30.580Z,1011.22
2017-08-16T00:54:30.612Z,1011.24
2017-08-16T00:55:30.630Z,1011.21
2017-08-16T00:56:30.650Z,1011.2
2017-08-16T00:57:30.678Z,1011.17
2017-08-16T00:58:30.704Z,1011.14
2017-08-16T00:59:30.731Z,1011.14
2017-08-16T01:00:30.757Z,1011.17
2017-08-16T01:01:30.781Z,1011.13
2017-08-16T01:03:30.833Z,1011.15
2017-08-16T01:04:30.861Z,1011.14
2017-08-16T01:05:30.886Z,1011.16
2017-08-16T01:06:30.963Z,1011.21
2017-08-16T01:07:30.933Z,1011.21
2017-08-16T01:08:30.960Z,1011.2
2017-08-16T01:09:30.987Z,1011.21
2017-08-16T01:10:31.014Z,1011.23
2017-08-16T01:11:31.038Z,1011.22
2017-08-16T01:12:31.066Z,1011.24
2017-08-16T01:13:31.085Z,1011.27
2017-08-16T01:14:31.113Z,1011.3
2017-08-16T01:15:31.136Z,1011.31
2017-08-16T01:16:31.166Z,1011.33
2017-08-16T01:17:31.191Z,1011.34
2017-08-16T01:19:31.245Z,1011.34
2017-08-16T01:20:31.267Z,1011.36
2017-08-16T01:21:31.294Z,1011.37
2017-08-16T01:22:31.319Z,1011.38
2017-08-16T01:23:31.340Z,1011.41
2017-08-16T01:24:31.368Z,1011.41
2017-08-16T01:25:31.396Z,1011.43
2017-08-16T01:26:31.425Z,1011.45
2017-08-16T01:27:31.446Z,1011.45
2017-08-16T01:28:31.467Z,1011.42
2017-08-16T01:29:31.499Z,1011.45
2017-08-16T01:30:31.524Z,1011.44
2017-08-16T01:31:31.551Z,1011.43
2017-08-16T01:32:31.576Z,1011.41
2017-08-16T01:34:31.628Z,1011.42
2017-08-16T01:35:31.650Z,1011.37
2017-08-16T01:36:31.679Z,1011.38
2017-08-16T01:37:31.700Z,1011.33
2017-08-16T01:38:31.729Z,1011.31
2017-08-16T01:39:31.754Z,1011.29
2017-08-16T01:40:31.780Z,1011.26
2017-08-16T01:41:31.813Z,1011.23
2017-08-16T01:42:31.827Z,1011.2
2017-08-16T01:43:31.852Z,1011.26
2017-08-16T01:44:31.882Z,1011.18
2017-08-16T01:45:31.911Z,1011.22
2017-08-16T01:46:31.931Z,1011.21
2017-08-16T01:47:31.962Z,1011.29
2017-08-16T01:48:31.986Z,1011.29
2017-08-16T01:49:32.011Z,1011.33
2017-08-16T01:50:32.032Z,1011.31
2017-08-16T01:51:32.060Z,1011.32
2017-08-16T01:52:32.085Z,1011.31
2017-08-16T01:53:32.112Z,1011.34
2017-08-16T01:54:32.137Z,1011.28
2017-08-16T01:55:32.163Z,1011.32
2017-08-16T01:56:32.189Z,1011.31
2017-08-16T01:57:32.214Z,1011.28
2017-08-16T01:58:32.240Z,1011.31
2017-08-16T01:59:32.261Z,1011.35
2017-08-16T02:00:32.288Z,1011.34
2017-08-16T02:01:32.316Z,1011.41
2017-08-16T02:02:32.341Z,1011.39
2017-08-16T02:03:32.367Z,1011.41
2017-08-16T02:04:32.394Z,1011.38
2017-08-16T02:06:32.444Z,1011.38
2017-08-16T02:07:32.473Z,1011.44
2017-08-16T02:08:32.514Z,1011.45
2017-08-16T02:09:32.520Z,1011.45
2017-08-16T02:10:32.546Z,1011.45
2017-08-16T02:11:32.573Z,1011.47
2017-08-16T02:12:32.596Z,1011.46
2017-08-16T02:13:32.622Z,1011.46
2017-08-16T02:14:32.649Z,1011.47
2017-08-16T02:15:32.673Z,1011.48
2017-08-16T02:16:32.699Z,1011.5
2017-08-16T02:17:32.724Z,1011.51
2017-08-16T02:18:32.751Z,1011.55
2017-08-16T02:19:32.775Z,1011.53
2017-08-16T02:20:32.802Z,1011.53
2017-08-16T02:22:32.853Z,1011.55
2017-08-16T02:23:32.878Z,1011.53
2017-08-16T02:24:32.930Z,1011.57
2017-08-16T02:25:32.929Z,1011.55
2017-08-16T02:26:32.952Z,1011.51
2017-08-16T02:27:32.981Z,1011.51
2017-08-16T02:28:33.009Z,1011.52
2017-08-16T02:29:33.030Z,1011.5
2017-08-16T02:30:33.055Z,1011.47
2017-08-16T02:31:33.082Z,1011.45
2017-08-16T02:32:33.107Z,1011.42
2017-08-16T02:33:33.132Z,1011.37
2017-08-16T02:34:33.155Z,1011.34
2017-08-16T02:35:33.184Z,1011.36
2017-08-16T02:36:33.210Z,1011.37
2017-08-16T02:38:33.262Z,1011.43
2017-08-16T02:39:33.287Z,1011.41
2017-08-16T02:40:33.315Z,1011.46
2017-08-16T02:41:33.335Z,1011.44
2017-08-16T02:42:33.365Z,1011.43
2017-08-16T02:43:33.387Z,1011.45
2017-08-16T02:44:33.413Z,1011.46
2017-08-16T02:45:33.439Z,1011.46
2017-08-16T02:46:33.467Z,1011.45
2017-08-16T02:47:33.487Z,1011.42
2017-08-16T02:48:33.518Z,1011.46
2017-08-16T02:49:33.539Z,1011.48
2017-08-16T02:50:33.565Z,1011.49
2017-08-16T02:51:33.590Z,1011.5
2017-08-16T02:52:33.616Z,1011.53
2017-08-16T02:54:33.669Z,1011.5
2017-08-16T02:55:33.695Z,1011.48
2017-08-16T02:56:33.718Z,1011.48
2017-08-16T02:57:33.743Z,1011.42
2017-08-16T02:58:33.772Z,1011.45
2017-08-16T02:59:33.792Z,1011.43
2017-08-16T03:00:33.822Z,1011.43
2017-08-16T03:01:33.845Z,1011.42
2017-08-16T03:02:33.876Z,1011.44
2017-08-16T03:03:33.896Z,1011.46
2017-08-16T03:04:33.923Z,1011.5
2017-08-16T03:05:33.952Z,1011.53
2017-08-16T03:06:33.974Z,1011.56
2017-08-16T03:07:34.001Z,1011.58
2017-08-16T03:09:34.048Z,1011.55
2017-08-16T03:10:34.076Z,1011.53
2017-08-16T03:11:34.100Z,1011.53
2017-08-16T03:12:34.128Z,1011.56
2017-08-16T03:13:34.153Z,1011.56
2017-08-16T03:14:34.178Z,1011.58
2017-08-16T03:15:34.202Z,1011.64
2017-08-16T03:16:34.229Z,1011.64
2017-08-16T03:17:34.252Z,1011.68
2017-08-16T03:18:34.280Z,1011.7
2017-08-16T03:19:34.306Z,1011.72
2017-08-16T03:20:34.332Z,1011.8
2017-08-16T03:21:34.355Z,1011.79
2017-08-16T03:22:34.382Z,1011.79
2017-08-16T03:23:34.404Z,1011.81
2017-08-16T03:24:34.433Z,1011.85
2017-08-16T03:25:34.453Z,1011.88
2017-08-16T03:26:34.483Z,1011.89
2017-08-16T03:27:34.510Z,1011.94
2017-08-16T03:28:34.533Z,1011.89
2017-08-16T03:29:34.558Z,1011.88
2017-08-16T03:30:34.581Z,1011.89
2017-08-16T03:31:34.612Z,1011.93
2017-08-16T03:32:34.632Z,1011.95
2017-08-16T03:33:34.660Z,1011.95
2017-08-16T03:34:34.684Z,1011.95
2017-08-16T03:35:34.709Z,1011.91
2017-08-16T03:36:34.734Z,1011.94
2017-08-16T03:37:34.763Z,1011.96
2017-08-16T03:38:34.784Z,1011.95
2017-08-16T03:39:34.812Z,1011.95
2017-08-16T03:41:34.862Z,1011.91
2017-08-16T03:42:34.889Z,1011.94
2017-08-16T03:43:34.914Z,1011.93
2017-08-16T03:44:34.940Z,1011.92
2017-08-16T03:45:34.961Z,1011.92
2017-08-16T03:46:34.991Z,1011.91
2017-08-16T03:47:35.012Z,1011.92
2017-08-16T03:48:35.042Z,1011.96
2017-08-16T03:49:35.066Z,1011.97
2017-08-16T03:50:35.089Z,1011.97
2017-08-16T03:51:35.120Z,1012
2017-08-16T03:52:35.146Z,1012
2017-08-16T03:53:35.170Z,1011.99
2017-08-16T03:54:35.193Z,1012.01
2017-08-16T03:55:35.218Z,1011.98
2017-08-16T03:57:35.269Z,1011.91
2017-08-16T03:58:35.295Z,1011.96
2017-08-16T03:59:35.324Z,1011.94
2017-08-16T04:00:35.347Z,1011.98
2017-08-16T04:01:35.369Z,1011.95
2017-08-16T04:02:35.443Z,1012.02
2017-08-16T04:03:35.421Z,1012.02
2017-08-16T04:04:35.450Z,1012.02
2017-08-16T04:05:35.469Z,1012.04
2017-08-16T04:06:35.496Z,1012.05
2017-08-16T04:07:35.519Z,1012.11
2017-08-16T04:08:35.547Z,1012.13
2017-08-16T04:09:35.573Z,1012.15
2017-08-16T04:10:35.598Z,1012.17
2017-08-16T04:11:35.624Z,1012.22
2017-08-16T04:13:35.673Z,1012.26
2017-08-16T04:14:35.698Z,1012.29
2017-08-16T04:15:35.725Z,1012.26
2017-08-16T04:16:35.750Z,1012.31
2017-08-16T04:17:35.775Z,1012.32
2017-08-16T04:18:35.800Z,1012.31
2017-08-16T04:19:35.827Z,1012.31
2017-08-16T04:20:35.853Z,1012.31
2017-08-16T04:21:35.877Z,1012.35
2017-08-16T04:22:35.903Z,1012.35
2017-08-16T04:23:35.927Z,1012.38
2017-08-16T04:24:35.951Z,1012.4
2017-08-16T04:25:35.980Z,1012.38
2017-08-16T04:26:36.003Z,1012.4
2017-08-16T04:27:36.027Z,1012.4
2017-08-16T04:29:36.079Z,1012.39
2017-08-16T04:30:36.104Z,1012.43
2017-08-16T04:31:36.133Z,1012.46
2017-08-16T04:32:36.157Z,1012.46
2017-08-16T04:33:36.178Z,1012.48
2017-08-16T04:34:36.207Z,1012.52
2017-08-16T04:35:36.233Z,1012.56
2017-08-16T04:36:36.258Z,1012.56
2017-08-16T04:37:36.284Z,1012.59
2017-08-16T04:38:36.305Z,1012.61
2017-08-16T04:39:36.337Z,1012.59
2017-08-16T04:40:36.362Z,1012.63
2017-08-16T04:41:36.384Z,1012.64
2017-08-16T04:42:36.411Z,1012.69
2017-08-16T04:44:36.461Z,1012.71
2017-08-16T04:45:36.487Z,1012.73
2017-08-16T04:46:36.515Z,1012.74
2017-08-16T04:47:36.538Z,1012.74
2017-08-16T04:48:36.564Z,1012.81
2017-08-16T04:49:36.639Z,1012.76
2017-08-16T04:50:36.614Z,1012.81
2017-08-16T04:51:36.637Z,1012.81
2017-08-16T04:52:36.666Z,1012.86
2017-08-16T04:53:36.690Z,1012.87
2017-08-16T04:54:36.713Z,1012.79
2017-08-16T04:55:36.742Z,1012.83
2017-08-16T04:56:36.764Z,1012.85
2017-08-16T04:57:36.792Z,1012.73
2017-08-16T04:58:36.815Z,1012.79
2017-08-16T04:59:36.843Z,1012.84
2017-08-16T05:00:36.863Z,1012.8
2017-08-16T05:01:36.894Z,1012.78
2017-08-16T05:02:36.921Z,1012.78
2017-08-16T05:03:36.944Z,1012.77
2017-08-16T05:04:36.970Z,1012.77
2017-08-16T05:05:36.999Z,1012.8
2017-08-16T05:06:37.024Z,1012.79
2017-08-16T05:07:37.046Z,1012.82
2017-08-16T05:08:37.070Z,1012.83
2017-08-16T05:09:37.097Z,1012.89
2017-08-16T05:10:37.122Z,1012.83
2017-08-16T05:11:37.147Z,1012.85
2017-08-16T05:12:37.169Z,1012.87
2017-08-16T05:13:37.197Z,1012.84
2017-08-16T05:14:37.223Z,1012.87
2017-08-16T05:16:37.273Z,1012.86
2017-08-16T05:17:37.296Z,1012.87
2017-08-16T05:18:37.324Z,1012.88
2017-08-16T05:19:37.346Z,1012.85
2017-08-16T05:20:37.376Z,1012.88
2017-08-16T05:21:37.403Z,1012.88
2017-08-16T05:22:37.422Z,1012.94
2017-08-16T05:23:37.447Z,1012.92
2017-08-16T05:24:37.476Z,1012.97
2017-08-16T05:25:37.501Z,1013.02
2017-08-16T05:26:37.529Z,1013
2017-08-16T05:27:37.554Z,1013.02
2017-08-16T05:28:37.578Z,1013.05
2017-08-16T05:29:37.601Z,1013.06
2017-08-16T05:30:37.628Z,1013.03
2017-08-16T05:32:37.681Z,1013.02
2017-08-16T05:33:37.703Z,1013.06
2017-08-16T05:34:37.728Z,1013.11
2017-08-16T05:35:37.759Z,1013.15
2017-08-16T05:36:37.775Z,1013.19
2017-08-16T05:37:37.807Z,1013.23
2017-08-16T05:38:37.831Z,1013.2
2017-08-16T05:39:37.852Z,1013.27
2017-08-16T05:40:37.882Z,1013.28
2017-08-16T05:41:37.906Z,1013.29
2017-08-16T05:42:37.931Z,1013.28
2017-08-16T05:43:37.962Z,1013.27
2017-08-16T05:44:37.983Z,1013.32
2017-08-16T05:45:38.009Z,1013.29
2017-08-16T05:46:38.034Z,1013.33
2017-08-16T05:48:38.084Z,1013.33
2017-08-16T05:49:38.110Z,1013.35
2017-08-16T05:50:38.135Z,1013.42
2017-08-16T05:51:38.159Z,1013.42
2017-08-16T05:52:38.184Z,1013.48
2017-08-16T05:53:38.213Z,1013.48
2017-08-16T05:54:38.233Z,1013.52
2017-08-16T05:55:38.262Z,1013.52
2017-08-16T05:56:38.288Z,1013.51
2017-08-16T05:57:38.315Z,1013.58
2017-08-16T05:58:38.337Z,1013.6
2017-08-16T05:59:38.363Z,1013.65
2017-08-16T06:00:38.439Z,1013.67
2017-08-16T06:01:38.415Z,1013.69
2017-08-16T06:02:38.441Z,1013.7
2017-08-16T06:04:38.492Z,1013.72
2017-08-16T06:05:38.514Z,1013.68
2017-08-16T06:06:38.542Z,1013.74
2017-08-16T06:07:38.567Z,1013.73
2017-08-16T06:08:38.592Z,1013.75
2017-08-16T06:09:38.613Z,1013.75
2017-08-16T06:10:38.645Z,1013.77
2017-08-16T06:11:38.669Z,1013.74
2017-08-16T06:12:38.694Z,1013.77
2017-08-16T06:13:38.718Z,1013.73
2017-08-16T06:14:38.744Z,1013.75
2017-08-16T06:15:38.770Z,1013.74
2017-08-16T06:16:38.792Z,1013.77
2017-08-16T06:17:38.823Z,1013.81
2017-08-16T06:19:38.869Z,1013.82
2017-08-16T06:20:38.897Z,1013.83
2017-08-16T06:21:38.920Z,1013.83
2017-08-16T06:22:38.950Z,1013.84
2017-08-16T06:23:38.974Z,1013.87
2017-08-16T06:24:38.998Z,1013.88
2017-08-16T06:25:39.024Z,1013.9
2017-08-16T06:26:39.051Z,1013.93
2017-08-16T06:27:39.075Z,1013.94
2017-08-16T06:28:39.096Z,1013.97
2017-08-16T06:29:39.125Z,1013.95
2017-08-16T06:30:39.151Z,1013.96
2017-08-16T06:31:39.174Z,1013.98
2017-08-16T06:32:39.204Z,1013.99
2017-08-16T06:33:39.226Z,1013.99
2017-08-16T06:34:39.254Z,1014.02
2017-08-16T06:35:39.276Z,1014.02
2017-08-16T06:36:39.301Z,1014.04
2017-08-16T06:37:39.329Z,1014.07
2017-08-16T06:38:39.356Z,1014.05
2017-08-16T06:39:39.379Z,1014.08
2017-08-16T06:40:39.404Z,1014.05
2017-08-16T06:41:39.430Z,1014.09
2017-08-16T06:42:39.454Z,1014.08
2017-08-16T06:43:39.484Z,1014.12
2017-08-16T06:44:39.506Z,1014.16
2017-08-16T06:45:39.531Z,1014.15
2017-08-16T06:46:39.559Z,1014.16
2017-08-16T06:47:39.582Z,1014.18
2017-08-16T06:48:39.609Z,1014.18
2017-08-16T06:49:39.632Z,1014.22
2017-08-16T06:51:39.685Z,1014.23
2017-08-16T06:52:39.706Z,1014.27
2017-08-16T06:53:39.735Z,1014.3
2017-08-16T06:54:39.760Z,1014.29
2017-08-16T06:55:39.787Z,1014.36
2017-08-16T06:56:39.812Z,1014.34
2017-08-16T06:57:39.834Z,1014.39
2017-08-16T06:58:39.864Z,1014.39
2017-08-16T06:59:39.887Z,1014.37
2017-08-16T07:00:39.910Z,1014.37
2017-08-16T07:01:39.934Z,1014.35
2017-08-16T07:02:39.963Z,1014.41
2017-08-16T07:03:39.988Z,1014.41
2017-08-16T07:04:40.010Z,1014.37
2017-08-16T07:05:40.037Z,1014.37
2017-08-16T07:07:40.088Z,1014.41
2017-08-16T07:08:40.115Z,1014.41
2017-08-16T07:09:40.140Z,1014.42
2017-08-16T07:10:40.185Z,1014.44
2017-08-16T07:11:40.198Z,1014.47
2017-08-16T07:12:40.215Z,1014.46
2017-08-16T07:13:40.238Z,1014.47
2017-08-16T07:14:40.266Z,1014.48
2017-08-16T07:15:40.290Z,1014.52
2017-08-16T07:16:40.318Z,1014.49
2017-08-16T07:17:40.343Z,1014.53
2017-08-16T07:18:40.365Z,1014.52
2017-08-16T07:19:40.394Z,1014.56
2017-08-16T07:20:40.420Z,1014.53
2017-08-16T07:21:40.444Z,1014.58
2017-08-16T07:23:40.491Z,1014.58
2017-08-16T07:24:40.519Z,1014.59
2017-08-16T07:25:40.547Z,1014.6
2017-08-16T07:26:40.570Z,1014.6
2017-08-16T07:27:40.598Z,1014.6
2017-08-16T07:28:40.622Z,1014.61
2017-08-16T07:29:40.648Z,1014.63
2017-08-16T07:30:40.669Z,1014.66
2017-08-16T07:31:40.698Z,1014.63
2017-08-16T07:32:40.725Z,1014.71
2017-08-16T07:33:40.750Z,1014.72
2017-08-16T07:34:40.775Z,1014.73
2017-08-16T07:35:40.798Z,1014.69
2017-08-16T07:36:40.825Z,1014.76
2017-08-16T07:37:40.852Z,1014.77
2017-08-16T07:39:40.901Z,1014.75
2017-08-16T07:40:40.929Z,1014.79
2017-08-16T07:41:40.954Z,1014.76
2017-08-16T07:42:40.980Z,1014.83
2017-08-16T07:43:41.001Z,1014.85
2017-08-16T07:44:41.028Z,1014.86
2017-08-16T07:45:41.049Z,1014.9
2017-08-16T07:46:41.076Z,1014.93
2017-08-16T07:47:41.100Z,1014.92
2017-08-16T07:48:41.130Z,1014.91
2017-08-16T07:49:41.155Z,1014.98
2017-08-16T07:50:41.233Z,1014.96
2017-08-16T07:51:41.205Z,1015.01
2017-08-16T07:52:41.232Z,1015.02
2017-08-16T07:54:41.281Z,1015.05
2017-08-16T07:55:41.314Z,1015.09
2017-08-16T07:56:41.335Z,1015.1
2017-08-16T07:57:41.359Z,1015.11
2017-08-16T07:58:41.382Z,1015.12
2017-08-16T07:59:41.409Z,1015.15
2017-08-16T08:00:41.431Z,1015.18
2017-08-16T08:01:41.457Z,1015.25
2017-08-16T08:02:41.481Z,1015.22
2017-08-16T08:03:41.509Z,1015.23
2017-08-16T08:04:41.538Z,1015.3
2017-08-16T08:05:41.558Z,1015.31
2017-08-16T08:06:41.589Z,1015.3
2017-08-16T08:07:41.607Z,1015.35
2017-08-16T08:08:41.635Z,1015.37
2017-08-16T08:09:41.662Z,1015.41
2017-08-16T08:10:41.987Z,1015.47
2017-08-16T08:11:41.710Z,1015.51
2017-08-16T08:12:41.734Z,1015.54
2017-08-16T08:13:41.762Z,1015.57
2017-08-16T08:14:41.787Z,1015.61
2017-08-16T08:15:41.810Z,1015.6
2017-08-16T08:16:41.837Z,1015.6
2017-08-16T08:17:41.865Z,1015.62
2017-08-16T08:18:41.888Z,1015.64
2017-08-16T08:19:41.911Z,1015.72
2017-08-16T08:20:41.940Z,1015.72
2017-08-16T08:21:41.966Z,1015.73
2017-08-16T08:22:42.018Z,1015.71
2017-08-16T08:23:42.014Z,1015.75
2017-08-16T08:24:42.039Z,1015.76
2017-08-16T08:26:42.092Z,1015.83
2017-08-16T08:27:42.114Z,1015.81
2017-08-16T08:28:42.142Z,1015.82
2017-08-16T08:29:42.164Z,1015.85
2017-08-16T08:30:42.191Z,1015.85
2017-08-16T08:31:42.216Z,1015.9
2017-08-16T08:32:42.236Z,1015.93
2017-08-16T08:33:42.263Z,1015.97
2017-08-16T08:34:42.293Z,1015.98
2017-08-16T08:35:42.319Z,1015.96
2017-08-16T08:36:42.337Z,1015.98
2017-08-16T08:37:42.368Z,1015.98
2017-08-16T08:38:42.390Z,1015.96
2017-08-16T08:39:42.412Z,1015.98
2017-08-16T08:40:42.440Z,1015.98
2017-08-16T08:42:42.492Z,1015.95
2017-08-16T08:43:42.518Z,1015.91
2017-08-16T08:44:42.537Z,1015.92
2017-08-16T08:45:42.567Z,1015.91
2017-08-16T08:46:42.587Z,1015.91
2017-08-16T08:47:42.613Z,1015.92
2017-08-16T08:48:42.640Z,1015.96
2017-08-16T08:49:42.665Z,1015.98
2017-08-16T08:50:42.690Z,1015.98
2017-08-16T08:51:42.716Z,1016.01
2017-08-16T08:52:42.740Z,1016.02
2017-08-16T08:53:42.765Z,1016
2017-08-16T08:54:42.790Z,1015.99
2017-08-16T08:55:42.810Z,1016.01
2017-08-16T08:56:42.839Z,1016
2017-08-16T08:58:42.884Z,1016.01
2017-08-16T08:59:42.913Z,1016.05
2017-08-16T09:00:42.936Z,1016.06
2017-08-16T09:01:42.963Z,1016.04
2017-08-16T09:02:42.988Z,1016.05
2017-08-16T09:03:43.013Z,1016.05
2017-08-16T09:04:43.041Z,1016.03
2017-08-16T09:05:43.059Z,1016
2017-08-16T09:06:43.088Z,1016.02
2017-08-16T09:07:43.108Z,1016.01
2017-08-16T09:08:43.137Z,1016.01
2017-08-16T09:09:43.160Z,1016.04
2017-08-16T09:10:43.188Z,1016.02
2017-08-16T09:11:43.214Z,1015.99
2017-08-16T09:12:43.235Z,1015.99
2017-08-16T09:14:43.286Z,1015.93
2017-08-16T09:15:43.311Z,1015.92
2017-08-16T09:16:43.335Z,1015.95
2017-08-16T09:17:43.361Z,1015.97
2017-08-16T09:18:43.384Z,1015.96
2017-08-16T09:19:43.409Z,1015.95
2017-08-16T09:20:43.433Z,1015.92
2017-08-16T09:21:43.457Z,1015.99
2017-08-16T09:22:43.485Z,1016.01
2017-08-16T09:23:43.509Z,1016
2017-08-16T09:24:43.534Z,1016.04
2017-08-16T09:25:43.559Z,1016.02
2017-08-16T09:26:43.587Z,1016.04
2017-08-16T09:27:43.607Z,1016.06
2017-08-16T09:29:43.659Z,1016
2017-08-16T09:30:43.681Z,1015.99
2017-08-16T09:31:43.707Z,1016.02
2017-08-16T09:32:43.732Z,1016.06
2017-08-16T09:33:43.757Z,1016.07
2017-08-16T09:34:43.782Z,1016.07
2017-08-16T09:35:43.805Z,1016.07
2017-08-16T09:36:43.828Z,1016.05
2017-08-16T09:37:43.855Z,1016.08
2017-08-16T09:38:43.881Z,1016.07
2017-08-16T09:39:43.909Z,1016.07
2017-08-16T09:40:43.930Z,1016.05
2017-08-16T09:41:43.956Z,1016.07
2017-08-16T09:42:43.982Z,1016.06
2017-08-16T09:43:44.006Z,1016.04
2017-08-16T09:44:44.027Z,1016.03
2017-08-16T09:45:44.056Z,1016
2017-08-16T09:46:44.078Z,1016.04
2017-08-16T09:47:44.105Z,1015.99
2017-08-16T09:48:44.130Z,1015.98
2017-08-16T09:49:44.150Z,1015.96
2017-08-16T09:50:44.179Z,1015.95
2017-08-16T09:51:44.200Z,1015.95
2017-08-16T09:52:44.230Z,1015.98
2017-08-16T09:53:44.255Z,1015.96
2017-08-16T09:54:44.277Z,1015.95
2017-08-16T09:55:44.305Z,1015.98
2017-08-16T09:56:44.330Z,1015.95
2017-08-16T09:57:44.354Z,1015.95
2017-08-16T09:58:44.380Z,1015.98
2017-08-16T09:59:44.401Z,1015.94
2017-08-16T10:01:44.453Z,1015.91
2017-08-16T10:02:44.476Z,1015.88
2017-08-16T10:03:44.502Z,1015.89
2017-08-16T10:04:44.527Z,1015.79
2017-08-16T10:05:44.555Z,1015.85
2017-08-16T10:06:44.575Z,1015.83
2017-08-16T10:07:44.601Z,1015.83
2017-08-16T10:08:44.624Z,1015.85
2017-08-16T10:09:44.651Z,1015.84
2017-08-16T10:10:44.674Z,1015.9
2017-08-16T10:11:44.703Z,1015.92
2017-08-16T10:12:44.723Z,1015.89
2017-08-16T10:13:44.753Z,1015.85
2017-08-16T10:14:44.775Z,1015.85
2017-08-16T10:15:44.800Z,1015.86
2017-08-16T10:17:44.853Z,1015.85
2017-08-16T10:18:44.878Z,1015.84
2017-08-16T10:19:44.896Z,1015.83
2017-08-16T10:20:44.926Z,1015.78
2017-08-16T10:21:44.950Z,1015.81
2017-08-16T10:22:44.976Z,1015.81
2017-08-16T10:23:45.000Z,1015.87
2017-08-16T10:24:45.027Z,1015.91
2017-08-16T10:25:45.052Z,1016.02
2017-08-16T10:26:45.078Z,1016.06
2017-08-16T10:27:45.101Z,1016.14
2017-08-16T10:28:45.131Z,1016.17
2017-08-16T10:29:45.152Z,1016.16
2017-08-16T10:30:45.177Z,1016.22
2017-08-16T10:31:45.203Z,1016.2
2017-08-16T10:33:45.255Z,1016.22
2017-08-16T10:34:45.280Z,1016.22
2017-08-16T10:35:45.305Z,1016.19
2017-08-16T10:36:45.329Z,1016.2
2017-08-16T10:37:45.354Z,1016.18
2017-08-16T10:38:45.380Z,1016.16
2017-08-16T10:39:45.405Z,1016.19
2017-08-16T10:40:45.430Z,1016.21
2017-08-16T10:41:45.456Z,1016.2
2017-08-16T10:42:45.480Z,1016.24
2017-08-16T10:43:45.509Z,1016.29
2017-08-16T10:44:45.534Z,1016.25
2017-08-16T10:45:45.557Z,1016.26
2017-08-16T10:46:45.582Z,1016.26
2017-08-16T10:47:45.602Z,1016.25
2017-08-16T10:49:45.660Z,1016.19
2017-08-16T10:50:45.683Z,1016.16
2017-08-16T10:51:45.708Z,1016.19
2017-08-16T10:52:45.734Z,1016.16
2017-08-16T10:53:45.762Z,1016.16
2017-08-16T10:54:45.785Z,1016.18
2017-08-16T10:55:45.807Z,1016.2
2017-08-16T10:56:45.834Z,1016.28
2017-08-16T10:57:45.862Z,1016.27
2017-08-16T10:58:45.888Z,1016.27
2017-08-16T10:59:45.914Z,1016.25
2017-08-16T11:00:45.938Z,1016.21
2017-08-16T11:01:45.965Z,1016.22
2017-08-16T11:02:45.989Z,1016.23
2017-08-16T11:04:46.046Z,1016.25
2017-08-16T11:05:46.067Z,1016.27
2017-08-16T11:06:46.094Z,1016.27
2017-08-16T11:07:46.120Z,1016.28
2017-08-16T11:08:46.147Z,1016.3
2017-08-16T11:09:46.171Z,1016.32
2017-08-16T11:10:46.195Z,1016.33
2017-08-16T11:11:46.225Z,1016.34
2017-08-16T11:12:46.249Z,1016.33
2017-08-16T11:13:46.277Z,1016.33
2017-08-16T11:14:46.300Z,1016.33
2017-08-16T11:15:46.329Z,1016.38
2017-08-16T11:16:46.350Z,1016.41
2017-08-16T11:17:46.374Z,1016.39
2017-08-16T11:18:46.402Z,1016.34
2017-08-16T11:19:46.430Z,1016.32
2017-08-16T11:20:46.456Z,1016.36
2017-08-16T11:21:46.482Z,1016.38
2017-08-16T11:22:46.509Z,1016.38
2017-08-16T11:23:46.535Z,1016.43
2017-08-16T11:24:46.560Z,1016.37
2017-08-16T11:25:46.587Z,1016.39
2017-08-16T11:26:46.615Z,1016.35
2017-08-16T11:27:46.637Z,1016.37
2017-08-16T11:28:46.669Z,1016.37
2017-08-16T11:29:46.696Z,1016.39
2017-08-16T11:30:46.719Z,1016.4
2017-08-16T11:31:46.895Z,1016.38
2017-08-16T11:32:46.774Z,1016.4
2017-08-16T11:33:46.796Z,1016.44
2017-08-16T11:34:46.819Z,1016.4
2017-08-16T11:36:46.874Z,1016.43
2017-08-16T11:37:46.902Z,1016.42
2017-08-16T11:38:46.927Z,1016.45
2017-08-16T11:39:46.954Z,1016.43
2017-08-16T11:40:46.980Z,1016.46
2017-08-16T11:41:47.007Z,1016.5
2017-08-16T11:42:47.032Z,1016.53
2017-08-16T11:43:47.060Z,1016.49
2017-08-16T11:44:47.087Z,1016.55
2017-08-16T11:45:47.110Z,1016.54
2017-08-16T11:46:47.141Z,1016.54
2017-08-16T11:47:47.165Z,1016.57
2017-08-16T11:48:47.193Z,1016.55
2017-08-16T11:49:47.222Z,1016.57
2017-08-16T11:50:47.248Z,1016.56
2017-08-16T11:52:47.303Z,1016.59
2017-08-16T11:53:47.418Z,1016.59
2017-08-16T11:54:47.358Z,1016.63
2017-08-16T11:55:47.386Z,1016.61
2017-08-16T11:56:47.563Z,1016.63
2017-08-16T11:57:47.438Z,1016.63
2017-08-16T11:58:47.464Z,1016.62
2017-08-16T11:59:47.495Z,1016.63
2017-08-16T12:00:47.518Z,1016.6
2017-08-16T12:01:47.554Z,1016.6
2017-08-16T12:02:47.574Z,1016.59
2017-08-16T12:03:47.604Z,1016.6
2017-08-16T12:04:47.631Z,1016.58
2017-08-16T12:05:47.662Z,1016.58
2017-08-16T12:06:47.685Z,1016.6
2017-08-16T12:08:47.738Z,1016.61
2017-08-16T12:09:47.765Z,1016.65
2017-08-16T12:10:47.797Z,1016.6
2017-08-16T12:11:47.823Z,1016.6
2017-08-16T12:12:47.853Z,1016.59
2017-08-16T12:13:47.876Z,1016.59
2017-08-16T12:14:47.904Z,1016.61
2017-08-16T12:15:47.937Z,1016.61
2017-08-16T12:16:47.958Z,1016.59
2017-08-16T12:17:47.990Z,1016.6
2017-08-16T12:18:48.013Z,1016.65
2017-08-16T12:19:48.043Z,1016.59
2017-08-16T12:20:48.068Z,1016.66
2017-08-16T12:21:48.101Z,1016.65
2017-08-16T12:22:48.125Z,1016.67
2017-08-16T12:24:48.179Z,1016.68
2017-08-16T12:25:48.209Z,1016.67
2017-08-16T12:26:48.234Z,1016.7
2017-08-16T12:27:48.266Z,1016.7
2017-08-16T12:28:48.288Z,1016.69
2017-08-16T12:29:48.317Z,1016.67
2017-08-16T12:30:48.344Z,1016.7
2017-08-16T12:31:48.371Z,1016.69
2017-08-16T12:32:48.399Z,1016.68
2017-08-16T12:33:48.422Z,1016.67
2017-08-16T12:34:48.453Z,1016.67
2017-08-16T12:35:48.483Z,1016.67
2017-08-16T12:36:48.510Z,1016.74
2017-08-16T12:37:48.536Z,1016.76
2017-08-16T12:39:48.592Z,1016.76
2017-08-16T12:40:48.614Z,1016.72
2017-08-16T12:41:48.642Z,1016.75
2017-08-16T12:42:48.669Z,1016.74
2017-08-16T12:43:48.694Z,1016.74
2017-08-16T12:44:48.726Z,1016.74
2017-08-16T12:45:48.753Z,1016.74
2017-08-16T12:46:48.778Z,1016.75
2017-08-16T12:47:48.806Z,1016.74
2017-08-16T12:48:48.832Z,1016.75